sensor_id;sensor_type;location;lat;lon;timestamp;P1;durP1;ratioP1;P2;durP2;ratioP2
5684;SDS011;2865;53.114;9.130;2023-04-01T00:01:47;5.43;;;4.23;;
5684;SDS011;2865;53.114;9.130;2023-04-01T00:04:13;7.80;;;4.90;;
5684;SDS011;2865;53.114;9.130;2023-04-01T00:06:38;5.07;;;4.53;;
5684;SDS011;2865;53.114;9.130;2023-04-01T00:09:04;5.50;;;5.00;;
5684;SDS011;2865;53.114;9.130;2023-04-01T00:11:29;8.87;;;5.00;;
5684;SDS011;2865;53.114;9.130;2023-04-01T00:13:55;7.50;;;5.13;;
5684;SDS011;2865;53.114;9.130;2023-04-01T00:16:20;7.23;;;4.83;;
5684;SDS011;2865;53.114;9.130;2023-04-01T00:18:45;6.13;;;4.97;;
5684;SDS011;2865;53.114;9.130;2023-04-01T00:21:11;6.63;;;5.53;;
5684;SDS011;2865;53.114;9.130;2023-04-01T00:23:36;6.87;;;5.37;;
5684;SDS011;2865;53.114;9.130;2023-04-01T00:26:02;6.50;;;5.47;;
5684;SDS011;2865;53.114;9.130;2023-04-01T00:28:27;5.60;;;5.10;;
5684;SDS011;2865;53.114;9.130;2023-04-01T00:30:52;6.30;;;4.90;;
5684;SDS011;2865;53.114;9.130;2023-04-01T00:33:18;5.97;;;5.10;;
5684;SDS011;2865;53.114;9.130;2023-04-01T00:35:43;8.17;;;5.40;;
5684;SDS011;2865;53.114;9.130;2023-04-01T00:38:08;5.80;;;4.80;;
5684;SDS011;2865;53.114;9.130;2023-04-01T00:40:35;6.67;;;5.13;;
5684;SDS011;2865;53.114;9.130;2023-04-01T00:42:59;12.10;;;5.20;;
5684;SDS011;2865;53.114;9.130;2023-04-01T00:45:41;8.03;;;5.57;;
5684;SDS011;2865;53.114;9.130;2023-04-01T00:48:06;7.50;;;5.37;;
5684;SDS011;2865;53.114;9.130;2023-04-01T00:50:31;7.23;;;5.67;;
5684;SDS011;2865;53.114;9.130;2023-04-01T00:52:57;8.37;;;6.20;;
5684;SDS011;2865;53.114;9.130;2023-04-01T00:55:22;10.30;;;6.30;;
5684;SDS011;2865;53.114;9.130;2023-04-01T00:57:47;9.03;;;6.33;;
5684;SDS011;2865;53.114;9.130;2023-04-01T01:00:13;8.13;;;5.13;;
5684;SDS011;2865;53.114;9.130;2023-04-01T01:02:38;6.73;;;5.50;;
5684;SDS011;2865;53.114;9.130;2023-04-01T01:05:04;8.70;;;5.43;;
5684;SDS011;2865;53.114;9.130;2023-04-01T01:07:35;6.70;;;5.73;;
5684;SDS011;2865;53.114;9.130;2023-04-01T01:10:18;7.63;;;6.83;;
5684;SDS011;2865;53.114;9.130;2023-04-01T01:12:45;7.00;;;5.73;;
5684;SDS011;2865;53.114;9.130;2023-04-01T01:15:15;8.30;;;5.53;;
5684;SDS011;2865;53.114;9.130;2023-04-01T01:17:56;5.87;;;5.27;;
5684;SDS011;2865;53.114;9.130;2023-04-01T01:28:51;6.63;;;5.97;;
5684;SDS011;2865;53.114;9.130;2023-04-01T01:32:28;7.33;;;5.70;;
5684;SDS011;2865;53.114;9.130;2023-04-01T01:36:35;5.90;;;5.30;;
5684;SDS011;2865;53.114;9.130;2023-04-01T01:39:03;5.60;;;5.10;;
5684;SDS011;2865;53.114;9.130;2023-04-01T01:41:27;6.17;;;5.00;;
5684;SDS011;2865;53.114;9.130;2023-04-01T01:43:52;7.20;;;5.90;;
5684;SDS011;2865;53.114;9.130;2023-04-01T01:46:19;6.50;;;5.00;;
5684;SDS011;2865;53.114;9.130;2023-04-01T01:48:43;7.77;;;5.23;;
5684;SDS011;2865;53.114;9.130;2023-04-01T01:51:08;7.03;;;5.40;;
5684;SDS011;2865;53.114;9.130;2023-04-01T01:53:34;8.83;;;5.67;;
5684;SDS011;2865;53.114;9.130;2023-04-01T01:56:00;6.80;;;6.13;;
5684;SDS011;2865;53.114;9.130;2023-04-01T01:58:29;9.00;;;5.20;;
5684;SDS011;2865;53.114;9.130;2023-04-01T02:00:56;6.67;;;6.00;;
5684;SDS011;2865;53.114;9.130;2023-04-01T02:03:21;6.43;;;4.70;;
5684;SDS011;2865;53.114;9.130;2023-04-01T02:05:47;7.00;;;5.60;;
5684;SDS011;2865;53.114;9.130;2023-04-01T02:08:13;9.47;;;6.03;;
5684;SDS011;2865;53.114;9.130;2023-04-01T02:10:39;7.60;;;5.33;;
5684;SDS011;2865;53.114;9.130;2023-04-01T02:13:05;7.43;;;5.40;;
5684;SDS011;2865;53.114;9.130;2023-04-01T02:15:28;7.97;;;5.83;;
5684;SDS011;2865;53.114;9.130;2023-04-01T02:17:53;5.90;;;5.00;;
5684;SDS011;2865;53.114;9.130;2023-04-01T02:20:20;6.90;;;5.27;;
5684;SDS011;2865;53.114;9.130;2023-04-01T02:22:48;6.10;;;5.23;;
5684;SDS011;2865;53.114;9.130;2023-04-01T02:25:16;6.20;;;5.60;;
5684;SDS011;2865;53.114;9.130;2023-04-01T02:27:40;5.57;;;5.13;;
5684;SDS011;2865;53.114;9.130;2023-04-01T02:30:06;6.80;;;5.53;;
5684;SDS011;2865;53.114;9.130;2023-04-01T02:32:33;5.63;;;5.10;;
5684;SDS011;2865;53.114;9.130;2023-04-01T02:34:58;6.10;;;5.50;;
5684;SDS011;2865;53.114;9.130;2023-04-01T02:37:23;8.30;;;5.97;;
5684;SDS011;2865;53.114;9.130;2023-04-01T02:39:48;6.10;;;5.40;;
5684;SDS011;2865;53.114;9.130;2023-04-01T02:42:14;6.03;;;5.50;;
5684;SDS011;2865;53.114;9.130;2023-04-01T02:44:39;6.30;;;5.70;;
5684;SDS011;2865;53.114;9.130;2023-04-01T02:47:05;9.30;;;6.17;;
5684;SDS011;2865;53.114;9.130;2023-04-01T02:49:30;6.60;;;5.90;;
5684;SDS011;2865;53.114;9.130;2023-04-01T02:51:55;6.40;;;5.77;;
5684;SDS011;2865;53.114;9.130;2023-04-01T02:54:21;6.70;;;6.10;;
5684;SDS011;2865;53.114;9.130;2023-04-01T02:56:47;8.70;;;6.00;;
5684;SDS011;2865;53.114;9.130;2023-04-01T02:59:12;5.57;;;5.07;;
5684;SDS011;2865;53.114;9.130;2023-04-01T03:01:37;6.10;;;5.60;;
5684;SDS011;2865;53.114;9.130;2023-04-01T03:04:03;5.33;;;4.83;;
5684;SDS011;2865;53.114;9.130;2023-04-01T03:06:28;7.40;;;6.07;;
5684;SDS011;2865;53.114;9.130;2023-04-01T03:08:54;6.73;;;6.13;;
5684;SDS011;2865;53.114;9.130;2023-04-01T03:11:19;9.43;;;6.20;;
5684;SDS011;2865;53.114;9.130;2023-04-01T03:13:44;10.03;;;6.00;;
5684;SDS011;2865;53.114;9.130;2023-04-01T03:16:10;7.07;;;5.90;;
5684;SDS011;2865;53.114;9.130;2023-04-01T03:18:35;7.70;;;5.67;;
5684;SDS011;2865;53.114;9.130;2023-04-01T03:23:38;6.07;;;5.47;;
5684;SDS011;2865;53.114;9.130;2023-04-01T03:26:03;8.57;;;6.10;;
5684;SDS011;2865;53.114;9.130;2023-04-01T03:28:29;6.67;;;5.57;;
5684;SDS011;2865;53.114;9.130;2023-04-01T03:30:54;6.43;;;5.83;;
5684;SDS011;2865;53.114;9.130;2023-04-01T03:33:20;9.83;;;6.17;;
5684;SDS011;2865;53.114;9.130;2023-04-01T03:35:45;7.40;;;5.93;;
5684;SDS011;2865;53.114;9.130;2023-04-01T03:38:10;7.60;;;6.50;;
5684;SDS011;2865;53.114;9.130;2023-04-01T03:40:36;7.50;;;5.90;;
5684;SDS011;2865;53.114;9.130;2023-04-01T03:43:01;8.63;;;6.37;;
5684;SDS011;2865;53.114;9.130;2023-04-01T03:45:27;10.47;;;6.13;;
5684;SDS011;2865;53.114;9.130;2023-04-01T03:47:52;9.90;;;6.20;;
5684;SDS011;2865;53.114;9.130;2023-04-01T03:50:17;8.50;;;7.23;;
5684;SDS011;2865;53.114;9.130;2023-04-01T03:52:43;8.67;;;6.00;;
5684;SDS011;2865;53.114;9.130;2023-04-01T03:55:08;7.57;;;6.77;;
5684;SDS011;2865;53.114;9.130;2023-04-01T03:57:33;9.63;;;6.63;;
5684;SDS011;2865;53.114;9.130;2023-04-01T03:59:59;7.40;;;6.17;;
5684;SDS011;2865;53.114;9.130;2023-04-01T04:02:24;6.93;;;5.83;;
5684;SDS011;2865;53.114;9.130;2023-04-01T04:04:50;8.03;;;6.50;;
5684;SDS011;2865;53.114;9.130;2023-04-01T04:07:15;7.50;;;5.87;;
5684;SDS011;2865;53.114;9.130;2023-04-01T04:09:41;7.90;;;6.63;;
5684;SDS011;2865;53.114;9.130;2023-04-01T04:12:06;6.67;;;6.03;;
5684;SDS011;2865;53.114;9.130;2023-04-01T04:14:32;6.53;;;5.87;;
5684;SDS011;2865;53.114;9.130;2023-04-01T04:16:57;6.73;;;6.03;;
5684;SDS011;2865;53.114;9.130;2023-04-01T04:19:22;9.30;;;5.30;;
5684;SDS011;2865;53.114;9.130;2023-04-01T04:21:48;10.20;;;5.67;;
5684;SDS011;2865;53.114;9.130;2023-04-01T04:24:13;7.60;;;4.80;;
5684;SDS011;2865;53.114;9.130;2023-04-01T04:26:38;5.70;;;4.97;;
5684;SDS011;2865;53.114;9.130;2023-04-01T04:29:04;5.50;;;5.00;;
5684;SDS011;2865;53.114;9.130;2023-04-01T04:31:29;4.80;;;4.37;;
5684;SDS011;2865;53.114;9.130;2023-04-01T04:33:55;5.87;;;4.73;;
5684;SDS011;2865;53.114;9.130;2023-04-01T04:36:20;5.83;;;4.83;;
5684;SDS011;2865;53.114;9.130;2023-04-01T04:38:46;4.80;;;4.40;;
5684;SDS011;2865;53.114;9.130;2023-04-01T04:41:12;5.17;;;4.53;;
5684;SDS011;2865;53.114;9.130;2023-04-01T04:43:37;6.03;;;4.70;;
5684;SDS011;2865;53.114;9.130;2023-04-01T04:46:04;5.10;;;4.60;;
5684;SDS011;2865;53.114;9.130;2023-04-01T04:48:29;5.90;;;4.30;;
5684;SDS011;2865;53.114;9.130;2023-04-01T04:50:54;4.90;;;4.50;;
5684;SDS011;2865;53.114;9.130;2023-04-01T04:53:20;6.43;;;4.63;;
5684;SDS011;2865;53.114;9.130;2023-04-01T04:55:46;4.70;;;4.30;;
5684;SDS011;2865;53.114;9.130;2023-04-01T04:58:10;4.73;;;4.33;;
5684;SDS011;2865;53.114;9.130;2023-04-01T05:00:36;5.90;;;4.40;;
5684;SDS011;2865;53.114;9.130;2023-04-01T05:03:01;4.33;;;3.93;;
5684;SDS011;2865;53.114;9.130;2023-04-01T05:05:26;5.60;;;4.10;;
5684;SDS011;2865;53.114;9.130;2023-04-01T05:07:52;4.47;;;4.17;;
5684;SDS011;2865;53.114;9.130;2023-04-01T05:10:17;3.80;;;3.50;;
5684;SDS011;2865;53.114;9.130;2023-04-01T05:12:43;5.90;;;4.07;;
5684;SDS011;2865;53.114;9.130;2023-04-01T05:15:09;5.73;;;4.33;;
5684;SDS011;2865;53.114;9.130;2023-04-01T05:17:34;4.57;;;4.13;;
5684;SDS011;2865;53.114;9.130;2023-04-01T05:20:00;4.93;;;4.53;;
5684;SDS011;2865;53.114;9.130;2023-04-01T05:22:25;5.40;;;4.20;;
5684;SDS011;2865;53.114;9.130;2023-04-01T05:24:51;4.73;;;4.33;;
5684;SDS011;2865;53.114;9.130;2023-04-01T05:27:16;5.30;;;3.90;;
5684;SDS011;2865;53.114;9.130;2023-04-01T05:29:41;6.10;;;4.60;;
5684;SDS011;2865;53.114;9.130;2023-04-01T05:32:07;5.47;;;4.90;;
5684;SDS011;2865;53.114;9.130;2023-04-01T05:34:32;7.20;;;4.57;;
5684;SDS011;2865;53.114;9.130;2023-04-01T05:36:58;5.67;;;4.07;;
5684;SDS011;2865;53.114;9.130;2023-04-01T05:39:23;4.03;;;3.73;;
5684;SDS011;2865;53.114;9.130;2023-04-01T05:41:48;4.50;;;3.77;;
5684;SDS011;2865;53.114;9.130;2023-04-01T05:44:14;4.77;;;4.37;;
5684;SDS011;2865;53.114;9.130;2023-04-01T05:46:40;4.60;;;4.10;;
5684;SDS011;2865;53.114;9.130;2023-04-01T05:49:05;3.90;;;3.63;;
5684;SDS011;2865;53.114;9.130;2023-04-01T05:51:30;3.70;;;3.40;;
5684;SDS011;2865;53.114;9.130;2023-04-01T05:53:56;4.00;;;3.57;;
5684;SDS011;2865;53.114;9.130;2023-04-01T05:56:21;3.83;;;3.30;;
5684;SDS011;2865;53.114;9.130;2023-04-01T05:58:49;4.37;;;3.57;;
5684;SDS011;2865;53.114;9.130;2023-04-01T06:01:12;5.03;;;4.07;;
5684;SDS011;2865;53.114;9.130;2023-04-01T06:03:38;4.63;;;4.10;;
5684;SDS011;2865;53.114;9.130;2023-04-01T06:06:03;4.17;;;3.87;;
5684;SDS011;2865;53.114;9.130;2023-04-01T06:08:30;5.87;;;3.50;;
5684;SDS011;2865;53.114;9.130;2023-04-01T06:11:03;4.20;;;3.80;;
5684;SDS011;2865;53.114;9.130;2023-04-01T06:16:30;6.80;;;3.93;;
5684;SDS011;2865;53.114;9.130;2023-04-01T06:19:08;4.53;;;4.13;;
5684;SDS011;2865;53.114;9.130;2023-04-01T06:27:39;5.00;;;3.40;;
5684;SDS011;2865;53.114;9.130;2023-04-01T06:29:50;4.87;;;4.47;;
5684;SDS011;2865;53.114;9.130;2023-04-01T06:32:35;5.83;;;3.73;;
5684;SDS011;2865;53.114;9.130;2023-04-01T06:35:11;5.47;;;4.30;;
5684;SDS011;2865;53.114;9.130;2023-04-01T06:43:21;3.53;;;3.23;;
5684;SDS011;2865;53.114;9.130;2023-04-01T06:46:07;3.97;;;3.67;;
5684;SDS011;2865;53.114;9.130;2023-04-01T06:48:40;3.83;;;3.53;;
5684;SDS011;2865;53.114;9.130;2023-04-01T06:51:12;3.57;;;3.37;;
5684;SDS011;2865;53.114;9.130;2023-04-01T06:53:54;3.30;;;3.00;;
5684;SDS011;2865;53.114;9.130;2023-04-01T06:56:30;8.47;;;4.27;;
5684;SDS011;2865;53.114;9.130;2023-04-01T06:58:58;3.20;;;3.00;;
5684;SDS011;2865;53.114;9.130;2023-04-01T07:01:27;4.57;;;4.17;;
5684;SDS011;2865;53.114;9.130;2023-04-01T07:03:53;3.00;;;2.77;;
5684;SDS011;2865;53.114;9.130;2023-04-01T07:06:25;3.70;;;3.30;;
5684;SDS011;2865;53.114;9.130;2023-04-01T07:08:57;4.73;;;3.57;;
5684;SDS011;2865;53.114;9.130;2023-04-01T07:11:25;3.30;;;3.10;;
5684;SDS011;2865;53.114;9.130;2023-04-01T07:13:51;3.33;;;3.03;;
5684;SDS011;2865;53.114;9.130;2023-04-01T07:16:23;3.50;;;3.20;;
5684;SDS011;2865;53.114;9.130;2023-04-01T07:18:49;2.83;;;2.63;;
5684;SDS011;2865;53.114;9.130;2023-04-01T07:21:18;5.30;;;3.37;;
5684;SDS011;2865;53.114;9.130;2023-04-01T07:23:39;3.23;;;2.93;;
5684;SDS011;2865;53.114;9.130;2023-04-01T07:26:07;2.90;;;2.70;;
5684;SDS011;2865;53.114;9.130;2023-04-01T07:28:33;3.10;;;2.70;;
5684;SDS011;2865;53.114;9.130;2023-04-01T07:31:05;2.63;;;2.43;;
5684;SDS011;2865;53.114;9.130;2023-04-01T07:33:57;2.80;;;2.50;;
5684;SDS011;2865;53.114;9.130;2023-04-01T07:36:32;3.33;;;3.10;;
5684;SDS011;2865;53.114;9.130;2023-04-01T07:41:51;4.50;;;3.50;;
5684;SDS011;2865;53.114;9.130;2023-04-01T07:44:21;2.53;;;2.33;;
5684;SDS011;2865;53.114;9.130;2023-04-01T07:46:53;3.53;;;2.67;;
5684;SDS011;2865;53.114;9.130;2023-04-01T07:49:24;2.80;;;2.50;;
5684;SDS011;2865;53.114;9.130;2023-04-01T07:52:31;3.53;;;2.50;;
5684;SDS011;2865;53.114;9.130;2023-04-01T07:54:40;2.33;;;2.23;;
5684;SDS011;2865;53.114;9.130;2023-04-01T07:59:46;2.47;;;2.23;;
5684;SDS011;2865;53.114;9.130;2023-04-01T08:05:05;3.03;;;2.53;;
5684;SDS011;2865;53.114;9.130;2023-04-01T08:07:58;7.90;;;2.80;;
5684;SDS011;2865;53.114;9.130;2023-04-01T08:10:28;2.27;;;2.17;;
5684;SDS011;2865;53.114;9.130;2023-04-01T08:13:08;2.30;;;2.20;;
5684;SDS011;2865;53.114;9.130;2023-04-01T08:15:46;2.67;;;2.57;;
5684;SDS011;2865;53.114;9.130;2023-04-01T08:21:04;3.20;;;2.40;;
5684;SDS011;2865;53.114;9.130;2023-04-01T08:23:30;2.83;;;2.30;;
5684;SDS011;2865;53.114;9.130;2023-04-01T08:26:00;4.63;;;2.50;;
5684;SDS011;2865;53.114;9.130;2023-04-01T08:28:25;2.50;;;2.30;;
5684;SDS011;2865;53.114;9.130;2023-04-01T08:30:53;2.03;;;1.93;;
5684;SDS011;2865;53.114;9.130;2023-04-01T08:33:21;2.67;;;2.20;;
5684;SDS011;2865;53.114;9.130;2023-04-01T08:35:46;2.47;;;1.90;;
5684;SDS011;2865;53.114;9.130;2023-04-01T08:38:16;2.10;;;1.90;;
5684;SDS011;2865;53.114;9.130;2023-04-01T08:40:47;1.80;;;1.70;;
5684;SDS011;2865;53.114;9.130;2023-04-01T08:43:09;2.50;;;2.10;;
5684;SDS011;2865;53.114;9.130;2023-04-01T08:45:42;2.37;;;2.27;;
5684;SDS011;2865;53.114;9.130;2023-04-01T08:48:19;2.50;;;2.27;;
5684;SDS011;2865;53.114;9.130;2023-04-01T08:53:30;2.57;;;2.33;;
5684;SDS011;2865;53.114;9.130;2023-04-01T08:56:09;2.43;;;2.10;;
5684;SDS011;2865;53.114;9.130;2023-04-01T08:58:55;4.40;;;2.40;;
5684;SDS011;2865;53.114;9.130;2023-04-01T09:01:40;2.43;;;2.30;;
5684;SDS011;2865;53.114;9.130;2023-04-01T09:13:05;2.47;;;2.27;;
5684;SDS011;2865;53.114;9.130;2023-04-01T09:18:21;2.40;;;2.30;;
5684;SDS011;2865;53.114;9.130;2023-04-01T09:21:08;2.53;;;2.30;;
5684;SDS011;2865;53.114;9.130;2023-04-01T09:24:10;2.33;;;2.20;;
5684;SDS011;2865;53.114;9.130;2023-04-01T09:26:34;1.90;;;1.80;;
5684;SDS011;2865;53.114;9.130;2023-04-01T09:34:51;4.57;;;1.83;;
5684;SDS011;2865;53.114;9.130;2023-04-01T09:37:35;2.00;;;1.90;;
5684;SDS011;2865;53.114;9.130;2023-04-01T09:40:09;2.37;;;2.17;;
5684;SDS011;2865;53.114;9.130;2023-04-01T09:45:35;5.60;;;2.63;;
5684;SDS011;2865;53.114;9.130;2023-04-01T09:48:39;2.20;;;1.60;;
5684;SDS011;2865;53.114;9.130;2023-04-01T09:51:01;1.50;;;1.43;;
5684;SDS011;2865;53.114;9.130;2023-04-01T09:53:36;1.57;;;1.57;;
5684;SDS011;2865;53.114;9.130;2023-04-01T10:07:13;1.50;;;1.50;;
5684;SDS011;2865;53.114;9.130;2023-04-01T10:12:38;1.50;;;1.50;;
5684;SDS011;2865;53.114;9.130;2023-04-01T10:15:08;1.80;;;1.70;;
5684;SDS011;2865;53.114;9.130;2023-04-01T10:17:36;1.70;;;1.60;;
5684;SDS011;2865;53.114;9.130;2023-04-01T10:21:15;1.90;;;1.83;;
5684;SDS011;2865;53.114;9.130;2023-04-01T10:23:02;1.77;;;1.70;;
5684;SDS011;2865;53.114;9.130;2023-04-01T10:25:46;1.53;;;1.53;;
5684;SDS011;2865;53.114;9.130;2023-04-01T10:28:22;1.63;;;1.63;;
5684;SDS011;2865;53.114;9.130;2023-04-01T10:31:12;1.80;;;1.70;;
5684;SDS011;2865;53.114;9.130;2023-04-01T10:39:17;1.80;;;1.70;;
5684;SDS011;2865;53.114;9.130;2023-04-01T10:44:42;1.93;;;1.83;;
5684;SDS011;2865;53.114;9.130;2023-04-01T10:47:48;1.90;;;1.83;;
5684;SDS011;2865;53.114;9.130;2023-04-01T10:50:05;2.10;;;1.90;;
5684;SDS011;2865;53.114;9.130;2023-04-01T11:01:45;2.00;;;1.80;;
5684;SDS011;2865;53.114;9.130;2023-04-01T11:06:58;5.27;;;2.10;;
5684;SDS011;2865;53.114;9.130;2023-04-01T11:09:46;1.90;;;1.80;;
5684;SDS011;2865;53.114;9.130;2023-04-01T11:12:18;1.77;;;1.77;;
5684;SDS011;2865;53.114;9.130;2023-04-01T11:14:50;2.10;;;2.00;;
5684;SDS011;2865;53.114;9.130;2023-04-01T11:25:52;2.10;;;1.90;;
5684;SDS011;2865;53.114;9.130;2023-04-01T11:33:54;2.20;;;2.10;;
5684;SDS011;2865;53.114;9.130;2023-04-01T11:39:29;2.43;;;2.33;;
5684;SDS011;2865;53.114;9.130;2023-04-01T11:42:46;2.10;;;2.00;;
5684;SDS011;2865;53.114;9.130;2023-04-01T11:44:21;2.00;;;1.90;;
5684;SDS011;2865;53.114;9.130;2023-04-01T11:46:52;2.40;;;2.30;;
5684;SDS011;2865;53.114;9.130;2023-04-01T11:49:56;2.23;;;2.13;;
5684;SDS011;2865;53.114;9.130;2023-04-01T11:52:09;2.17;;;2.07;;
5684;SDS011;2865;53.114;9.130;2023-04-01T11:54:56;2.57;;;2.47;;
5684;SDS011;2865;53.114;9.130;2023-04-01T12:00:12;2.30;;;2.20;;
5684;SDS011;2865;53.114;9.130;2023-04-01T12:02:44;2.13;;;2.03;;
5684;SDS011;2865;53.114;9.130;2023-04-01T12:07:50;2.80;;;2.60;;
5684;SDS011;2865;53.114;9.130;2023-04-01T12:10:21;2.30;;;2.20;;
5684;SDS011;2865;53.114;9.130;2023-04-01T12:13:01;2.50;;;2.30;;
5684;SDS011;2865;53.114;9.130;2023-04-01T12:15:53;2.73;;;2.60;;
5684;SDS011;2865;53.114;9.130;2023-04-01T12:18:20;2.87;;;2.77;;
5684;SDS011;2865;53.114;9.130;2023-04-01T12:20:50;2.00;;;1.90;;
5684;SDS011;2865;53.114;9.130;2023-04-01T12:28:44;2.97;;;2.77;;
5684;SDS011;2865;53.114;9.130;2023-04-01T12:31:27;2.50;;;2.40;;
5684;SDS011;2865;53.114;9.130;2023-04-01T12:36:40;2.43;;;2.33;;
5684;SDS011;2865;53.114;9.130;2023-04-01T12:40:17;2.20;;;2.00;;
5684;SDS011;2865;53.114;9.130;2023-04-01T12:45:02;2.27;;;2.07;;
5684;SDS011;2865;53.114;9.130;2023-04-01T12:47:34;1.90;;;1.90;;
5684;SDS011;2865;53.114;9.130;2023-04-01T12:50:27;2.20;;;2.10;;
5684;SDS011;2865;53.114;9.130;2023-04-01T12:52:58;2.10;;;2.00;;
5684;SDS011;2865;53.114;9.130;2023-04-01T12:55:40;2.23;;;2.00;;
5684;SDS011;2865;53.114;9.130;2023-04-01T12:58:15;2.00;;;1.90;;
5684;SDS011;2865;53.114;9.130;2023-04-01T13:00:51;2.00;;;1.90;;
5684;SDS011;2865;53.114;9.130;2023-04-01T13:03:34;2.10;;;2.00;;
5684;SDS011;2865;53.114;9.130;2023-04-01T13:09:02;2.23;;;2.13;;
5684;SDS011;2865;53.114;9.130;2023-04-01T13:14:00;1.80;;;1.70;;
5684;SDS011;2865;53.114;9.130;2023-04-01T13:16:26;1.73;;;1.70;;
5684;SDS011;2865;53.114;9.130;2023-04-01T13:19:08;1.60;;;1.60;;
5684;SDS011;2865;53.114;9.130;2023-04-01T13:21:38;1.67;;;1.67;;
5684;SDS011;2865;53.114;9.130;2023-04-01T13:24:06;2.20;;;2.10;;
5684;SDS011;2865;53.114;9.130;2023-04-01T13:26:44;1.63;;;1.60;;
5684;SDS011;2865;53.114;9.130;2023-04-01T13:29:18;2.00;;;1.90;;
5684;SDS011;2865;53.114;9.130;2023-04-01T13:31:50;2.00;;;1.90;;
5684;SDS011;2865;53.114;9.130;2023-04-01T13:37:20;1.77;;;1.77;;
5684;SDS011;2865;53.114;9.130;2023-04-01T13:39:54;2.10;;;2.00;;
5684;SDS011;2865;53.114;9.130;2023-04-01T13:42:34;1.70;;;1.60;;
5684;SDS011;2865;53.114;9.130;2023-04-01T13:45:00;1.97;;;1.87;;
5684;SDS011;2865;53.114;9.130;2023-04-01T13:50:33;2.10;;;2.00;;
5684;SDS011;2865;53.114;9.130;2023-04-01T13:53:01;1.70;;;1.70;;
5684;SDS011;2865;53.114;9.130;2023-04-01T13:58:20;2.40;;;2.30;;
5684;SDS011;2865;53.114;9.130;2023-04-01T14:00:52;1.93;;;1.83;;
5684;SDS011;2865;53.114;9.130;2023-04-01T14:03:30;2.50;;;2.40;;
5684;SDS011;2865;53.114;9.130;2023-04-01T14:11:22;5.13;;;4.73;;
5684;SDS011;2865;53.114;9.130;2023-04-01T14:13:56;2.43;;;2.33;;
5684;SDS011;2865;53.114;9.130;2023-04-01T14:19:21;2.40;;;2.30;;
5684;SDS011;2865;53.114;9.130;2023-04-01T14:22:04;3.00;;;2.80;;
5684;SDS011;2865;53.114;9.130;2023-04-01T14:30:28;3.23;;;3.03;;
5684;SDS011;2865;53.114;9.130;2023-04-01T14:33:01;3.10;;;2.90;;
5684;SDS011;2865;53.114;9.130;2023-04-01T14:36:00;7.33;;;3.20;;
5684;SDS011;2865;53.114;9.130;2023-04-01T14:38:25;3.37;;;2.63;;
5684;SDS011;2865;53.114;9.130;2023-04-01T14:40:52;3.20;;;3.00;;
5684;SDS011;2865;53.114;9.130;2023-04-01T14:43:22;3.60;;;3.30;;
5684;SDS011;2865;53.114;9.130;2023-04-01T14:46:09;4.33;;;3.80;;
5684;SDS011;2865;53.114;9.130;2023-04-01T14:48:37;3.80;;;3.50;;
5684;SDS011;2865;53.114;9.130;2023-04-01T14:51:13;3.73;;;3.43;;
5684;SDS011;2865;53.114;9.130;2023-04-01T14:53:30;3.10;;;2.90;;
5684;SDS011;2865;53.114;9.130;2023-04-01T14:55:56;3.20;;;3.00;;
5684;SDS011;2865;53.114;9.130;2023-04-01T14:58:31;5.40;;;4.33;;
5684;SDS011;2865;53.114;9.130;2023-04-01T15:06:30;3.50;;;3.30;;
5684;SDS011;2865;53.114;9.130;2023-04-01T15:08:56;3.20;;;3.00;;
5684;SDS011;2865;53.114;9.130;2023-04-01T15:11:31;3.00;;;2.90;;
5684;SDS011;2865;53.114;9.130;2023-04-01T15:14:00;3.50;;;3.20;;
5684;SDS011;2865;53.114;9.130;2023-04-01T15:16:34;3.50;;;3.30;;
5684;SDS011;2865;53.114;9.130;2023-04-01T15:19:12;3.67;;;3.03;;
5684;SDS011;2865;53.114;9.130;2023-04-01T15:21:56;3.30;;;3.10;;
5684;SDS011;2865;53.114;9.130;2023-04-01T15:24:37;3.50;;;3.30;;
5684;SDS011;2865;53.114;9.130;2023-04-01T15:27:08;8.23;;;3.50;;
5684;SDS011;2865;53.114;9.130;2023-04-01T15:29:56;2.87;;;2.77;;
5684;SDS011;2865;53.114;9.130;2023-04-01T15:33:14;3.33;;;3.13;;
5684;SDS011;2865;53.114;9.130;2023-04-01T15:35:25;3.53;;;3.23;;
5684;SDS011;2865;53.114;9.130;2023-04-01T15:38:05;3.30;;;3.00;;
5684;SDS011;2865;53.114;9.130;2023-04-01T15:40:40;4.17;;;3.73;;
5684;SDS011;2865;53.114;9.130;2023-04-01T15:45:47;3.70;;;3.40;;
5684;SDS011;2865;53.114;9.130;2023-04-01T15:48:31;3.40;;;3.20;;
5684;SDS011;2865;53.114;9.130;2023-04-01T15:53:35;3.13;;;2.93;;
5684;SDS011;2865;53.114;9.130;2023-04-01T15:57:08;4.40;;;3.50;;
5684;SDS011;2865;53.114;9.130;2023-04-01T15:59:06;2.90;;;2.80;;
5684;SDS011;2865;53.114;9.130;2023-04-01T16:01:39;3.57;;;3.37;;
5684;SDS011;2865;53.114;9.130;2023-04-01T16:04:17;3.57;;;3.27;;
5684;SDS011;2865;53.114;9.130;2023-04-01T16:06:48;2.93;;;2.73;;
5684;SDS011;2865;53.114;9.130;2023-04-01T16:09:33;3.07;;;2.87;;
5684;SDS011;2865;53.114;9.130;2023-04-01T16:15:08;3.27;;;3.07;;
5684;SDS011;2865;53.114;9.130;2023-04-01T16:17:38;3.37;;;3.10;;
5684;SDS011;2865;53.114;9.130;2023-04-01T16:20:14;3.03;;;2.83;;
5684;SDS011;2865;53.114;9.130;2023-04-01T16:22:48;3.27;;;3.07;;
5684;SDS011;2865;53.114;9.130;2023-04-01T16:25:19;3.60;;;2.97;;
5684;SDS011;2865;53.114;9.130;2023-04-01T16:27:51;3.10;;;2.87;;
5684;SDS011;2865;53.114;9.130;2023-04-01T16:30:38;3.50;;;3.20;;
5684;SDS011;2865;53.114;9.130;2023-04-01T16:33:04;4.03;;;3.53;;
5684;SDS011;2865;53.114;9.130;2023-04-01T16:35:49;5.37;;;4.23;;
5684;SDS011;2865;53.114;9.130;2023-04-01T16:38:16;3.50;;;3.20;;
5684;SDS011;2865;53.114;9.130;2023-04-01T16:40:43;4.07;;;3.77;;
5684;SDS011;2865;53.114;9.130;2023-04-01T16:43:14;3.63;;;3.30;;
5684;SDS011;2865;53.114;9.130;2023-04-01T16:45:40;3.87;;;3.37;;
5684;SDS011;2865;53.114;9.130;2023-04-01T16:48:07;3.60;;;3.30;;
5684;SDS011;2865;53.114;9.130;2023-04-01T16:50:39;7.50;;;3.33;;
5684;SDS011;2865;53.114;9.130;2023-04-01T16:52:59;6.60;;;4.27;;
5684;SDS011;2865;53.114;9.130;2023-04-01T16:58:10;4.10;;;3.70;;
5684;SDS011;2865;53.114;9.130;2023-04-01T17:00:40;9.40;;;4.87;;
5684;SDS011;2865;53.114;9.130;2023-04-01T17:03:40;5.60;;;4.40;;
5684;SDS011;2865;53.114;9.130;2023-04-01T17:05:52;4.20;;;3.90;;
5684;SDS011;2865;53.114;9.130;2023-04-01T17:08:30;5.17;;;4.43;;
5684;SDS011;2865;53.114;9.130;2023-04-01T17:11:02;5.53;;;4.30;;
5684;SDS011;2865;53.114;9.130;2023-04-01T17:13:29;5.70;;;4.70;;
5684;SDS011;2865;53.114;9.130;2023-04-01T17:16:02;5.10;;;4.27;;
5684;SDS011;2865;53.114;9.130;2023-04-01T17:21:25;4.70;;;4.27;;
5684;SDS011;2865;53.114;9.130;2023-04-01T17:23:50;5.80;;;4.30;;
5684;SDS011;2865;53.114;9.130;2023-04-01T17:26:17;6.70;;;4.60;;
5684;SDS011;2865;53.114;9.130;2023-04-01T17:28:50;6.67;;;4.50;;
5684;SDS011;2865;53.114;9.130;2023-04-01T17:31:20;4.37;;;3.83;;
5684;SDS011;2865;53.114;9.130;2023-04-01T17:35:04;8.43;;;4.57;;
5684;SDS011;2865;53.114;9.130;2023-04-01T17:39:37;4.37;;;4.00;;
5684;SDS011;2865;53.114;9.130;2023-04-01T17:44:37;6.33;;;4.00;;
5684;SDS011;2865;53.114;9.130;2023-04-01T17:48:16;4.40;;;4.00;;
5684;SDS011;2865;53.114;9.130;2023-04-01T17:50:02;5.37;;;4.87;;
5684;SDS011;2865;53.114;9.130;2023-04-01T17:52:33;6.77;;;4.70;;
5684;SDS011;2865;53.114;9.130;2023-04-01T17:55:18;4.47;;;4.03;;
5684;SDS011;2865;53.114;9.130;2023-04-01T17:57:46;5.23;;;4.60;;
5684;SDS011;2865;53.114;9.130;2023-04-01T18:00:17;5.00;;;4.50;;
5684;SDS011;2865;53.114;9.130;2023-04-01T18:02:48;5.50;;;5.00;;
5684;SDS011;2865;53.114;9.130;2023-04-01T18:05:17;6.27;;;4.70;;
5684;SDS011;2865;53.114;9.130;2023-04-01T18:07:44;5.30;;;4.50;;
5684;SDS011;2865;53.114;9.130;2023-04-01T18:10:17;8.77;;;5.10;;
5684;SDS011;2865;53.114;9.130;2023-04-01T18:12:45;7.53;;;5.00;;
5684;SDS011;2865;53.114;9.130;2023-04-01T18:15:45;7.07;;;4.73;;
5684;SDS011;2865;53.114;9.130;2023-04-01T18:20:53;6.03;;;4.20;;
5684;SDS011;2865;53.114;9.130;2023-04-01T18:23:36;6.17;;;4.03;;
5684;SDS011;2865;53.114;9.130;2023-04-01T18:26:07;14.73;;;4.97;;
5684;SDS011;2865;53.114;9.130;2023-04-01T18:28:36;6.17;;;5.00;;
5684;SDS011;2865;53.114;9.130;2023-04-01T18:31:06;4.23;;;3.83;;
5684;SDS011;2865;53.114;9.130;2023-04-01T18:33:34;4.50;;;4.20;;
5684;SDS011;2865;53.114;9.130;2023-04-01T18:38:48;6.50;;;4.90;;
5684;SDS011;2865;53.114;9.130;2023-04-01T18:41:19;14.10;;;4.83;;
5684;SDS011;2865;53.114;9.130;2023-04-01T18:43:51;5.63;;;5.07;;
5684;SDS011;2865;53.114;9.130;2023-04-01T18:46:19;7.73;;;4.60;;